Anna-barbara — D5AD4 — position and weather

sailwx.info

Track history (hours):
 
Tides and Currents Weather Stations Pressure Air Temp Water Temp Dewpoint Dewpoint Depression Visibility Wind Speed Wind Dir Waves Ship Positions

Anna-barbara

Last reported at 2017-Nov-15 04:13 UTC. Time now 2017-Nov-22 11:14 UTC.
Position N 16°14' W 062°42'.

Length 190 m; draft 12 m.

Type: Ship. MMSI: 636092302.

Date/timePositionNaut miles runAvg speedWind from/ knotsBaromVisibWave heightAir tempDewpointWater temp
2017-Nov-15 04:13N 16°14' W 062°42'2712.8
2017-Nov-15 02:07N 16°24' W 062°16'112.5
2017-Nov-15 02:00N 16°24' W 062°15'612.7
2017-Nov-15 01:30N 16°27' W 062°09'612.7
2017-Nov-15 01:00N 16°29' W 062°03'612.5
2017-Nov-15 00:30N 16°32' W 061°57'612.3
2017-Nov-15 00:00N 16°35' W 061°52'612.3
2017-Nov-14 23:30N 16°39' W 061°47'612.4
2017-Nov-14 23:00N 16°42' W 061°41'612.5
2017-Nov-14 22:30N 16°46' W 061°36'612.7
2017-Nov-14 22:00N 16°50' W 061°30'613.0
2017-Nov-14 21:30N 16°53' W 061°24'713.0
2017-Nov-14 21:00N 16°56' W 061°18'612.7
2017-Nov-14 20:30N 16°59' W 061°13'  
Track history (hours):
 
Tides and Currents Weather Stations Pressure Air Temp Water Temp Dewpoint Dewpoint Depression Visibility Wind Speed Wind Dir Waves Ship Positions

Anna-barbara

Last reported at 2017-Nov-15 04:13 UTC. Time now 2017-Nov-22 11:14 UTC.
Position N 16°14' W 062°42'.

Length 190 m; draft 12 m.

Type: Ship. MMSI: 636092302.

Date/timePositionNaut miles runAvg speedWind from/ knotsBaromVisibWave heightAir tempDewpointWater temp
2017-Nov-15 04:13N 16°14' W 062°42'2712.8
2017-Nov-15 02:07N 16°24' W 062°16'112.5
2017-Nov-15 02:00N 16°24' W 062°15'612.7
2017-Nov-15 01:30N 16°27' W 062°09'612.7
2017-Nov-15 01:00N 16°29' W 062°03'612.5
2017-Nov-15 00:30N 16°32' W 061°57'612.3
2017-Nov-15 00:00N 16°35' W 061°52'612.3
2017-Nov-14 23:30N 16°39' W 061°47'612.4
2017-Nov-14 23:00N 16°42' W 061°41'612.5
2017-Nov-14 22:30N 16°46' W 061°36'612.7
2017-Nov-14 22:00N 16°50' W 061°30'613.0
2017-Nov-14 21:30N 16°53' W 061°24'713.0
2017-Nov-14 21:00N 16°56' W 061°18'612.7
2017-Nov-14 20:30N 16°59' W 061°13'  

Dump ship's entire track history